Time;durP1;ratioP1;P1;durP2;ratioP2;P2;SDS_P1;SDS_P2;PMS_P1;PMS_P2;Temp;Humidity;BMP_temperature;BMP_pressure;BME280_temperature;BME280_humidity;BME280_pressure;Samples;Min_cycle;Max_cycle;Signal;HPM_P1;HPM_P2
2024/01/20 00:00:40;;;;;;;13.93;11.50;;;-3.10;99.90;;;;;;5050694;28;20421;-70
2024/01/20 00:03:07;;;;;;;14.77;12.45;;;-3.10;99.90;;;;;;5052141;28;20904;-70
2024/01/20 00:05:34;;;;;;;13.60;12.20;;;-3.10;99.90;;;;;;5051234;28;20429;-70
2024/01/20 00:08:00;;;;;;;14.02;12.20;;;-3.10;99.90;;;;;;5050770;28;20440;-70
2024/01/20 00:10:27;;;;;;;15.90;12.60;;;-3.10;99.90;;;;;;5050309;28;20937;-70
2024/01/20 00:12:54;;;;;;;13.68;12.27;;;-3.10;99.90;;;;;;5050151;28;20413;-70
2024/01/20 00:15:21;;;;;;;13.70;12.40;;;-3.20;99.90;;;;;;5050795;28;20464;-70
2024/01/20 00:17:49;;;;;;;16.45;12.85;;;-3.20;99.90;;;;;;5050828;28;20421;-71
2024/01/20 00:20:15;;;;;;;15.25;13.18;;;-3.20;99.90;;;;;;5047763;28;20431;-71
2024/01/20 00:22:43;;;;;;;15.05;12.27;;;-3.30;99.90;;;;;;5051742;28;20823;-71
2024/01/20 00:25:10;;;;;;;13.80;12.13;;;-3.20;99.90;;;;;;5050175;28;20490;-72
2024/01/20 00:27:37;;;;;;;15.40;12.80;;;-3.20;99.90;;;;;;5049951;28;20507;-72
2024/01/20 00:30:04;;;;;;;15.20;13.00;;;-3.20;99.90;;;;;;5050859;28;20437;-71
2024/01/20 00:32:31;;;;;;;16.38;12.70;;;-3.20;99.90;;;;;;5047939;28;20413;-70
2024/01/20 00:35:00;;;;;;;13.90;12.40;;;-3.20;99.90;;;;;;5050244;28;20430;-72
2024/01/20 00:37:27;;;;;;;15.20;12.38;;;-3.20;99.90;;;;;;5066840;22;20773;-64
2024/01/20 00:39:54;;;;;;;16.35;12.40;;;-3.20;99.90;;;;;;5041949;28;20723;-65
2024/01/20 00:42:20;;;;;;;15.00;11.90;;;-3.30;99.90;;;;;;5051393;28;20413;-64
2024/01/20 00:44:47;;;;;;;14.32;11.80;;;-3.30;99.90;;;;;;5065736;28;20426;-65
2024/01/20 00:47:14;;;;;;;12.88;11.57;;;-3.30;99.90;;;;;;5034773;28;20880;-64
2024/01/20 00:49:41;;;;;;;13.95;11.88;;;-3.30;99.90;;;;;;5065441;28;20439;-65
2024/01/20 00:52:09;;;;;;;13.45;12.05;;;-3.30;99.90;;;;;;5061797;28;20423;-65
2024/01/20 00:54:35;;;;;;;16.48;11.50;;;-3.30;99.90;;;;;;5058543;28;20412;-65
2024/01/20 00:57:01;;;;;;;15.23;11.50;;;-3.30;99.90;;;;;;5051826;28;20424;-65
2024/01/20 00:59:28;;;;;;;14.00;11.93;;;-3.30;99.90;;;;;;5047513;28;20415;-65
2024/01/20 01:01:55;;;;;;;12.70;11.40;;;-3.30;99.90;;;;;;5054741;28;20438;-65
2024/01/20 01:04:21;;;;;;;13.32;11.93;;;-3.30;99.90;;;;;;5051107;28;20431;-65
2024/01/20 01:06:49;;;;;;;14.68;11.68;;;-3.30;99.90;;;;;;5053062;28;20439;-65
2024/01/20 01:09:17;;;;;;;16.42;13.30;;;-3.40;99.90;;;;;;5056876;28;20447;-65
2024/01/20 01:11:45;;;;;;;13.98;12.48;;;-3.40;99.90;;;;;;5046847;28;20409;-64
2024/01/20 01:14:12;;;;;;;15.85;12.80;;;-3.40;99.90;;;;;;5048617;28;20776;-65
2024/01/20 01:16:39;;;;;;;15.30;12.63;;;-3.40;99.90;;;;;;5054567;28;20432;-65
2024/01/20 01:19:06;;;;;;;15.43;13.30;;;-3.40;99.90;;;;;;5049428;28;20430;-65
2024/01/20 01:21:33;;;;;;;17.20;13.37;;;-3.40;99.90;;;;;;5041644;28;20429;-65
2024/01/20 01:23:59;;;;;;;15.93;13.82;;;-3.40;99.90;;;;;;5044661;28;20416;-65
2024/01/20 01:26:27;;;;;;;17.23;13.80;;;-3.40;99.90;;;;;;5045302;28;20436;-64
2024/01/20 01:28:54;;;;;;;17.50;13.85;;;-3.50;99.90;;;;;;5050721;28;20438;-65
2024/01/20 01:31:21;;;;;;;16.33;14.10;;;-3.50;99.90;;;;;;5039386;28;20427;-65
2024/01/20 01:33:47;;;;;;;18.10;15.25;;;-3.50;99.90;;;;;;5049304;28;20417;-66
2024/01/20 01:36:14;;;;;;;20.20;15.95;;;-3.50;99.90;;;;;;5044063;28;20762;-65
2024/01/20 01:38:41;;;;;;;16.02;14.40;;;-3.50;99.90;;;;;;5053708;28;20456;-65
2024/01/20 01:41:08;;;;;;;18.85;15.35;;;-3.50;99.90;;;;;;5054855;28;20418;-65
2024/01/20 01:43:36;;;;;;;20.55;15.82;;;-3.50;99.90;;;;;;5054234;28;20498;-65
2024/01/20 01:46:04;;;;;;;20.77;15.83;;;-3.50;99.90;;;;;;5045508;28;20411;-65
2024/01/20 01:48:33;;;;;;;20.15;16.38;;;-3.50;99.90;;;;;;5051113;28;20515;-65
2024/01/20 01:51:03;;;;;;;18.70;16.20;;;-3.60;99.90;;;;;;5040750;28;20520;-65
2024/01/20 01:53:30;;;;;;;18.95;15.93;;;-3.60;99.90;;;;;;5047838;28;20434;-64
2024/01/20 01:55:57;;;;;;;18.77;16.25;;;-3.60;99.90;;;;;;5047920;28;20479;-64
2024/01/20 01:58:24;;;;;;;19.73;16.60;;;-3.60;99.90;;;;;;5051237;28;20411;-65
2024/01/20 02:00:52;;;;;;;20.95;17.80;;;-3.60;99.90;;;;;;5048671;28;20921;-63
2024/01/20 02:03:19;;;;;;;22.30;17.08;;;-3.70;99.90;;;;;;5034637;28;20768;-65
2024/01/20 02:05:46;;;;;;;20.38;17.25;;;-3.70;99.90;;;;;;5047946;28;20439;-65
2024/01/20 02:08:13;;;;;;;20.58;17.55;;;-3.70;99.90;;;;;;5038015;28;20425;-65
2024/01/20 02:10:42;;;;;;;21.63;17.42;;;-3.70;99.90;;;;;;5044095;28;20415;-65
2024/01/20 02:13:09;;;;;;;23.05;17.92;;;-3.70;99.90;;;;;;5043153;28;20440;-64
2024/01/20 02:15:37;;;;;;;21.83;17.80;;;-3.80;99.90;;;;;;5046537;28;20468;-64
2024/01/20 02:18:05;;;;;;;21.88;17.80;;;-3.80;99.90;;;;;;5055665;28;20422;-65
2024/01/20 02:20:32;;;;;;;22.27;18.08;;;-3.80;99.90;;;;;;5036049;28;20435;-64
2024/01/20 02:23:00;;;;;;;21.65;17.73;;;-3.80;99.90;;;;;;5037971;28;20407;-65
2024/01/20 02:25:27;;;;;;;21.75;17.63;;;-3.80;99.90;;;;;;5044950;28;20417;-65
2024/01/20 02:27:54;;;;;;;24.02;17.95;;;-3.80;99.90;;;;;;5052457;28;20431;-65
2024/01/20 02:30:20;;;;;;;22.05;18.35;;;-3.80;99.90;;;;;;5048510;28;20501;-65
2024/01/20 02:32:47;;;;;;;24.15;18.13;;;-3.90;99.90;;;;;;5055691;28;20426;-64
2024/01/20 02:35:14;;;;;;;21.55;17.85;;;-3.90;99.90;;;;;;5040191;28;20746;-64
2024/01/20 02:37:41;;;;;;;22.03;17.80;;;-3.90;99.90;;;;;;5049518;28;20749;-65
2024/01/20 02:40:10;;;;;;;22.98;18.75;;;-3.90;99.90;;;;;;5061427;28;20404;-64
2024/01/20 02:42:36;;;;;;;21.50;19.10;;;-3.90;99.90;;;;;;5044117;28;20468;-65
2024/01/20 02:45:04;;;;;;;21.35;18.60;;;-3.90;99.90;;;;;;5054173;28;20414;-65
2024/01/20 02:47:30;;;;;;;24.63;20.10;;;-4.00;99.90;;;;;;5027585;28;20446;-64
2024/01/20 02:49:57;;;;;;;24.08;18.88;;;-4.00;99.90;;;;;;5035454;28;20432;-65
2024/01/20 02:52:24;;;;;;;23.70;18.80;;;-4.10;99.90;;;;;;5051198;28;20418;-63
2024/01/20 02:54:51;;;;;;;23.73;17.70;;;-4.10;99.90;;;;;;5053200;28;20513;-63
2024/01/20 02:57:19;;;;;;;25.45;19.33;;;-4.10;99.90;;;;;;5052049;28;20442;-65
2024/01/20 02:59:45;;;;;;;24.45;19.70;;;-4.20;99.90;;;;;;5038017;28;20514;-65
2024/01/20 03:02:12;;;;;;;24.73;18.90;;;-4.20;99.90;;;;;;5045766;28;20484;-63
2024/01/20 03:04:39;;;;;;;22.50;18.40;;;-4.20;99.90;;;;;;5038881;28;20442;-63
2024/01/20 03:07:06;;;;;;;24.17;19.52;;;-4.20;99.90;;;;;;5048399;28;20526;-65
2024/01/20 03:09:32;;;;;;;22.30;18.92;;;-4.30;99.90;;;;;;5056011;28;20464;-67
2024/01/20 03:12:01;;;;;;;22.55;18.65;;;-4.30;99.90;;;;;;5041848;28;20854;-63
2024/01/20 03:14:29;;;;;;;25.20;19.58;;;-4.30;99.90;;;;;;5052847;28;20415;-63
2024/01/20 03:16:56;;;;;;;24.50;18.95;;;-4.30;99.90;;;;;;5059224;28;20963;-64
2024/01/20 03:19:23;;;;;;;24.40;19.17;;;-4.30;99.90;;;;;;5049120;28;20904;-63
2024/01/20 03:21:50;;;;;;;23.55;18.40;;;-4.30;99.90;;;;;;5040305;28;20421;-63
2024/01/20 03:24:19;;;;;;;21.98;17.60;;;-4.30;99.90;;;;;;5042253;28;20409;-63
2024/01/20 03:26:46;;;;;;;21.58;18.25;;;-4.40;99.90;;;;;;5042327;28;20855;-64
2024/01/20 03:29:13;;;;;;;23.43;18.40;;;-4.40;99.90;;;;;;5041998;28;20429;-63
2024/01/20 03:31:41;;;;;;;23.00;17.42;;;-4.40;99.90;;;;;;5043518;28;20422;-63
2024/01/20 03:34:09;;;;;;;24.63;18.13;;;-4.40;99.90;;;;;;5048907;28;20424;-63
2024/01/20 03:36:35;;;;;;;21.02;17.75;;;-4.50;99.90;;;;;;5056751;28;20496;-63
2024/01/20 03:39:02;;;;;;;22.65;17.20;;;-4.50;99.90;;;;;;5052010;28;20411;-63
2024/01/20 03:41:29;;;;;;;20.92;18.13;;;-4.50;99.90;;;;;;5060433;28;20426;-63
2024/01/20 03:43:56;;;;;;;22.02;17.27;;;-4.50;99.90;;;;;;5037255;28;20524;-64
2024/01/20 03:46:24;;;;;;;21.73;16.48;;;-4.50;99.90;;;;;;5052474;28;20893;-64
2024/01/20 03:48:52;;;;;;;21.85;17.90;;;-4.50;99.90;;;;;;5045912;28;20934;-63
2024/01/20 03:51:18;;;;;;;21.20;17.27;;;-4.50;99.90;;;;;;5043271;28;20428;-63
2024/01/20 03:53:44;;;;;;;22.27;17.15;;;-4.60;99.90;;;;;;5055611;28;20520;-63
2024/01/20 03:56:11;;;;;;;22.67;17.60;;;-4.60;99.90;;;;;;5047594;28;20509;-63
2024/01/20 03:58:38;;;;;;;21.73;17.20;;;-4.50;99.90;;;;;;5050211;28;20410;-63
2024/01/20 04:01:04;;;;;;;19.38;16.60;;;-4.60;99.90;;;;;;5067437;28;20482;-63
2024/01/20 04:03:31;;;;;;;22.83;17.77;;;-4.60;99.90;;;;;;5059246;28;20432;-64
2024/01/20 04:05:59;;;;;;;19.67;16.05;;;-4.60;99.90;;;;;;5065193;28;20462;-63
2024/01/20 04:08:26;;;;;;;23.15;17.25;;;-4.70;99.90;;;;;;5044474;28;20431;-63
2024/01/20 04:10:53;;;;;;;20.30;16.87;;;-4.70;99.90;;;;;;5058829;28;20449;-63
2024/01/20 04:13:19;;;;;;;20.83;16.30;;;-4.70;99.90;;;;;;5055706;28;20417;-64
2024/01/20 04:15:46;;;;;;;20.27;16.47;;;-4.70;99.90;;;;;;5064582;28;20490;-63
2024/01/20 04:18:13;;;;;;;18.05;15.95;;;-4.70;99.90;;;;;;5070971;28;20418;-65
2024/01/20 04:20:40;;;;;;;20.47;16.30;;;-4.70;99.90;;;;;;5065832;28;20447;-66
2024/01/20 04:23:08;;;;;;;17.50;15.35;;;-4.70;99.90;;;;;;5066005;28;20409;-65
2024/01/20 04:25:34;;;;;;;19.38;15.85;;;-4.80;99.90;;;;;;5071684;28;20404;-63
2024/01/20 04:28:01;;;;;;;19.20;15.13;;;-4.70;99.90;;;;;;5076862;28;20923;-63
2024/01/20 04:30:28;;;;;;;17.92;15.57;;;-4.80;99.90;;;;;;5076832;28;20494;-68
2024/01/20 04:32:54;;;;;;;18.88;15.52;;;-4.80;99.90;;;;;;5060167;28;20446;-63
2024/01/20 04:35:21;;;;;;;20.77;16.13;;;-4.80;99.90;;;;;;5073964;28;20431;-63
2024/01/20 04:37:48;;;;;;;19.15;15.93;;;-4.80;99.90;;;;;;5074708;28;20413;-68
2024/01/20 04:40:16;;;;;;;18.42;15.90;;;-4.80;99.90;;;;;;5084695;28;20448;-65
2024/01/20 04:42:43;;;;;;;18.58;15.60;;;-4.80;99.90;;;;;;5075001;28;20420;-63
2024/01/20 04:45:13;;;;;;;22.45;16.65;;;-4.90;99.90;;;;;;5071782;28;20405;-64
2024/01/20 04:47:40;;;;;;;20.08;16.67;;;-4.90;99.90;;;;;;5052057;28;20804;-64
2024/01/20 04:50:07;;;;;;;18.85;15.82;;;-4.90;99.90;;;;;;5061560;28;20415;-63
2024/01/20 04:52:34;;;;;;;19.40;14.80;;;-4.90;99.90;;;;;;5067820;28;20701;-64
2024/01/20 04:55:01;;;;;;;19.17;14.85;;;-4.90;99.90;;;;;;5039834;28;20503;-65
2024/01/20 04:57:29;;;;;;;18.13;14.60;;;-4.90;99.90;;;;;;5051912;28;20736;-63
2024/01/20 04:59:56;;;;;;;19.17;14.65;;;-4.90;99.90;;;;;;5043794;28;20886;-64
2024/01/20 05:02:22;;;;;;;19.00;15.60;;;-4.90;99.90;;;;;;5042187;28;20726;-63
2024/01/20 05:04:49;;;;;;;21.50;15.75;;;-5.00;99.90;;;;;;5055297;28;20440;-64
2024/01/20 05:07:16;;;;;;;18.20;14.70;;;-5.00;99.90;;;;;;5062762;28;20411;-63
2024/01/20 05:09:43;;;;;;;16.95;14.20;;;-5.00;99.90;;;;;;5051398;28;20460;-63
2024/01/20 05:12:10;;;;;;;16.92;14.77;;;-5.00;99.90;;;;;;5058815;28;21019;-64
2024/01/20 05:14:38;;;;;;;18.83;14.17;;;-5.10;99.90;;;;;;5049482;28;20938;-63
2024/01/20 05:17:05;;;;;;;19.15;14.60;;;-5.00;99.90;;;;;;5040646;28;20502;-63
2024/01/20 05:19:31;;;;;;;19.33;15.07;;;-5.10;99.90;;;;;;5041633;28;20448;-63
2024/01/20 05:21:58;;;;;;;17.63;14.30;;;-5.10;99.90;;;;;;5057796;28;20431;-63
2024/01/20 05:24:25;;;;;;;19.85;15.80;;;-5.20;99.90;;;;;;5041037;28;20906;-63
2024/01/20 05:26:52;;;;;;;19.10;14.82;;;-5.10;99.90;;;;;;5058908;28;20416;-63
2024/01/20 05:29:18;;;;;;;18.52;14.15;;;-5.20;99.90;;;;;;5052946;28;20442;-63
2024/01/20 05:31:46;;;;;;;18.80;14.30;;;-5.20;99.90;;;;;;5049754;28;20437;-63
2024/01/20 05:34:13;;;;;;;20.30;14.90;;;-5.20;99.90;;;;;;5059025;28;20459;-64
2024/01/20 05:36:40;;;;;;;20.65;15.05;;;-5.20;99.90;;;;;;5053091;28;20426;-63
2024/01/20 05:39:07;;;;;;;19.50;15.20;;;-5.20;99.90;;;;;;5054555;28;20700;-63
2024/01/20 05:41:33;;;;;;;19.02;14.80;;;-5.20;99.90;;;;;;5061965;28;20518;-63
2024/01/20 05:44:02;;;;;;;20.80;15.73;;;-5.30;99.90;;;;;;5051565;28;20430;-63
2024/01/20 05:46:29;;;;;;;19.88;15.50;;;-5.30;99.90;;;;;;5052789;28;20945;-63
2024/01/20 05:48:57;;;;;;;19.30;14.93;;;-5.30;99.90;;;;;;5033197;28;20565;-63
2024/01/20 05:51:23;;;;;;;18.40;14.95;;;-5.30;99.90;;;;;;5052083;28;20414;-63
2024/01/20 05:53:51;;;;;;;18.13;14.73;;;-5.30;99.90;;;;;;5052492;28;20433;-63
2024/01/20 05:56:20;;;;;;;21.17;14.73;;;-5.30;99.90;;;;;;5055501;28;20412;-64
2024/01/20 05:58:46;;;;;;;18.60;14.98;;;-5.30;99.90;;;;;;5052774;28;20736;-63
2024/01/20 06:01:14;;;;;;;18.23;14.30;;;-5.30;99.90;;;;;;5040840;28;20679;-63
2024/01/20 06:03:40;;;;;;;19.10;14.63;;;-5.30;99.90;;;;;;5057145;28;20443;-63
2024/01/20 06:06:08;;;;;;;18.92;14.70;;;-5.30;99.90;;;;;;5082905;28;20403;-63
2024/01/20 06:08:35;;;;;;;18.42;13.95;;;-5.30;99.90;;;;;;5082434;28;20412;-63
2024/01/20 06:11:02;;;;;;;18.30;14.35;;;-5.30;99.90;;;;;;5063953;28;20412;-63
2024/01/20 06:13:30;;;;;;;17.20;13.80;;;-5.30;99.90;;;;;;5058461;28;20528;-63
2024/01/20 06:15:57;;;;;;;18.75;14.02;;;-5.30;99.90;;;;;;5039844;28;20449;-63
2024/01/20 06:18:23;;;;;;;18.60;13.95;;;-5.30;99.90;;;;;;5051239;28;20462;-63
2024/01/20 06:20:50;;;;;;;19.23;14.23;;;-5.30;99.90;;;;;;5050668;28;20419;-63
2024/01/20 06:23:18;;;;;;;18.33;13.85;;;-5.30;99.90;;;;;;5045442;28;20415;-63
2024/01/20 06:25:45;;;;;;;17.40;13.10;;;-5.30;99.90;;;;;;5052603;28;20420;-64
2024/01/20 06:28:11;;;;;;;16.40;13.00;;;-5.30;99.90;;;;;;5068163;28;20470;-64
2024/01/20 06:30:38;;;;;;;17.23;13.57;;;-5.30;99.90;;;;;;5061061;28;20446;-63
2024/01/20 06:33:05;;;;;;;16.10;13.40;;;-5.40;99.90;;;;;;5053067;28;20411;-64
2024/01/20 06:35:32;;;;;;;17.20;13.27;;;-5.30;99.90;;;;;;5062064;28;20421;-63
2024/01/20 06:37:58;;;;;;;18.80;13.52;;;-5.30;99.90;;;;;;5062795;28;20428;-65
2024/01/20 06:40:26;;;;;;;17.75;13.77;;;-5.40;99.90;;;;;;5058403;28;20449;-63
2024/01/20 06:42:53;;;;;;;17.83;12.98;;;-5.40;99.90;;;;;;5037892;28;20800;-63
2024/01/20 06:45:20;;;;;;;14.82;12.50;;;-5.30;99.90;;;;;;5056928;28;20459;-63
2024/01/20 06:47:46;;;;;;;14.82;11.93;;;-5.40;99.90;;;;;;5050761;28;20415;-63
2024/01/20 06:50:15;;;;;;;17.83;13.20;;;-5.40;99.90;;;;;;5032114;28;20427;-63
2024/01/20 06:52:41;;;;;;;13.00;11.23;;;-5.40;99.90;;;;;;5042717;28;20757;-63
2024/01/20 06:55:09;;;;;;;18.55;13.75;;;-5.40;99.90;;;;;;5052100;28;20621;-63
2024/01/20 06:57:37;;;;;;;14.88;12.15;;;-5.40;99.90;;;;;;5059688;28;20509;-63
2024/01/20 07:00:07;;;;;;;18.15;13.40;;;-5.40;99.90;;;;;;5035174;28;20433;-63
2024/01/20 07:02:34;;;;;;;15.20;12.95;;;-5.40;99.90;;;;;;5036344;28;20433;-63
2024/01/20 07:05:01;;;;;;;17.23;13.32;;;-5.40;99.90;;;;;;5041661;28;20411;-63
2024/01/20 07:07:27;;;;;;;17.38;12.77;;;-5.40;99.90;;;;;;5049657;28;20778;-63
2024/01/20 07:09:54;;;;;;;15.73;12.55;;;-5.40;99.90;;;;;;5054293;28;20532;-64
2024/01/20 07:12:22;;;;;;;17.02;13.00;;;-5.40;99.90;;;;;;5057314;28;20423;-63
2024/01/20 07:14:50;;;;;;;14.90;12.55;;;-5.40;99.90;;;;;;5055036;28;20939;-63
2024/01/20 07:17:16;;;;;;;16.10;12.73;;;-5.40;99.90;;;;;;5058811;28;20869;-63
2024/01/20 07:19:43;;;;;;;16.92;13.48;;;-5.40;99.90;;;;;;5046346;28;20424;-63
2024/01/20 07:22:10;;;;;;;17.10;13.10;;;-5.40;99.90;;;;;;5059244;28;20699;-64
2024/01/20 07:24:37;;;;;;;16.10;13.05;;;-5.40;99.90;;;;;;5041824;28;20486;-64
2024/01/20 07:27:04;;;;;;;14.77;12.02;;;-5.40;99.90;;;;;;5038270;28;20411;-63
2024/01/20 07:29:30;;;;;;;16.92;12.88;;;-5.40;99.90;;;;;;5051153;28;20433;-62
2024/01/20 07:31:58;;;;;;;15.23;12.57;;;-5.40;99.90;;;;;;5059687;28;20411;-64
2024/01/20 07:34:25;;;;;;;15.43;11.90;;;-5.30;99.90;;;;;;5045127;28;20419;-64
2024/01/20 07:36:52;;;;;;;15.07;12.13;;;-5.30;99.90;;;;;;5057048;28;20415;-65
2024/01/20 07:39:19;;;;;;;13.27;11.38;;;-5.30;99.90;;;;;;5056565;28;20786;-64
2024/01/20 07:41:45;;;;;;;15.52;12.05;;;-5.30;99.90;;;;;;5053413;28;20451;-64
2024/01/20 07:44:12;;;;;;;14.75;11.95;;;-5.30;99.90;;;;;;5048104;28;20417;-65
2024/01/20 07:46:39;;;;;;;14.45;12.30;;;-5.30;99.90;;;;;;5054304;28;20515;-64
2024/01/20 07:49:07;;;;;;;14.55;11.63;;;-5.30;99.90;;;;;;5048374;28;20917;-65
2024/01/20 07:51:34;;;;;;;15.57;12.55;;;-5.30;99.90;;;;;;5048875;28;20814;-65
2024/01/20 07:54:01;;;;;;;16.40;12.40;;;-5.30;99.90;;;;;;5044517;28;20948;-67
2024/01/20 07:56:28;;;;;;;14.40;12.07;;;-5.30;99.90;;;;;;5040501;28;20415;-65
2024/01/20 07:58:54;;;;;;;16.55;13.88;;;-5.30;99.90;;;;;;5039605;28;20880;-64
2024/01/20 08:01:21;;;;;;;17.00;12.60;;;-5.30;99.90;;;;;;5034531;28;20439;-65
2024/01/20 08:03:48;;;;;;;16.85;13.15;;;-5.20;99.90;;;;;;5046670;28;20434;-64
2024/01/20 08:06:16;;;;;;;15.15;12.35;;;-5.20;99.90;;;;;;5054188;28;20408;-64
2024/01/20 08:08:44;;;;;;;14.70;11.60;;;-5.20;99.90;;;;;;5055971;28;20416;-65
2024/01/20 08:11:12;;;;;;;15.95;11.70;;;-5.10;99.90;;;;;;5060204;28;20440;-64
2024/01/20 08:13:38;;;;;;;15.18;12.73;;;-5.10;99.90;;;;;;5046486;28;20441;-66
2024/01/20 08:16:07;;;;;;;15.90;12.38;;;-5.00;99.90;;;;;;5040317;28;20538;-66
2024/01/20 08:18:34;;;;;;;13.30;11.52;;;-5.00;99.90;;;;;;5043855;28;20463;-66
2024/01/20 08:21:05;;;;;;;14.07;11.90;;;-4.90;99.90;;;;;;5049259;28;20428;-66
2024/01/20 08:23:33;;;;;;;14.88;11.10;;;-4.80;99.90;;;;;;5080519;28;20472;-65
2024/01/20 08:26:00;;;;;;;15.60;12.05;;;-4.80;99.90;;;;;;5069251;28;20415;-65
2024/01/20 08:28:27;;;;;;;13.07;10.80;;;-4.70;99.90;;;;;;5062861;28;20416;-65
2024/01/20 08:30:54;;;;;;;15.63;11.70;;;-4.60;99.90;;;;;;5043701;28;20539;-65
2024/01/20 08:33:20;;;;;;;14.70;12.20;;;-4.50;99.90;;;;;;5049886;28;20416;-65
2024/01/20 08:35:49;;;;;;;13.45;11.40;;;-4.30;99.90;;;;;;5051967;28;20417;-65
2024/01/20 08:38:16;;;;;;;13.98;12.00;;;-4.20;99.90;;;;;;5056072;28;20580;-65
2024/01/20 08:40:44;;;;;;;14.90;11.75;;;-4.10;99.90;;;;;;5060978;28;20915;-65
2024/01/20 08:43:11;;;;;;;13.27;11.80;;;-4.00;99.90;;;;;;5049475;28;20455;-65
2024/01/20 08:45:38;;;;;;;14.20;11.63;;;-3.90;99.90;;;;;;5043385;28;20429;-66
2024/01/20 08:48:05;;;;;;;13.13;11.43;;;-3.80;99.90;;;;;;5050896;28;20412;-66
2024/01/20 08:50:32;;;;;;;13.55;11.23;;;-3.70;99.90;;;;;;5043086;28;20440;-65
2024/01/20 08:52:59;;;;;;;14.98;11.80;;;-3.70;99.90;;;;;;5034855;28;20419;-64
2024/01/20 08:55:26;;;;;;;13.85;11.63;;;-3.50;99.90;;;;;;5045683;28;20445;-64
2024/01/20 08:57:55;;;;;;;13.57;11.38;;;-3.50;99.90;;;;;;5045896;28;20710;-64
2024/01/20 09:00:22;;;;;;;12.68;11.20;;;-3.30;99.90;;;;;;5032786;28;20457;-65
2024/01/20 09:02:50;;;;;;;14.30;11.50;;;-3.20;99.90;;;;;;5040835;28;20453;-64
2024/01/20 09:05:17;;;;;;;12.95;11.40;;;-3.10;99.90;;;;;;5050905;28;20463;-65
2024/01/20 09:07:44;;;;;;;13.75;11.40;;;-3.10;99.90;;;;;;5049216;28;20529;-66
2024/01/20 09:10:12;;;;;;;14.00;12.17;;;-3.00;99.90;;;;;;5042435;28;20754;-65
2024/01/20 09:12:38;;;;;;;13.95;11.68;;;-2.90;99.90;;;;;;5038703;28;20898;-65
2024/01/20 09:15:07;;;;;;;15.57;11.43;;;-2.80;99.90;;;;;;5035790;28;20415;-65
2024/01/20 09:17:34;;;;;;;14.90;11.27;;;-2.80;99.90;;;;;;5048484;28;20440;-65
2024/01/20 09:20:01;;;;;;;13.88;11.40;;;-2.80;99.90;;;;;;5040803;28;20451;-64
2024/01/20 09:22:27;;;;;;;12.75;10.90;;;-2.80;99.90;;;;;;5060525;28;20425;-65
2024/01/20 09:24:54;;;;;;;12.65;11.35;;;-2.70;99.90;;;;;;5053450;28;20421;-64
2024/01/20 09:27:23;;;;;;;14.02;10.90;;;-2.60;99.90;;;;;;5041316;28;20498;-65
2024/01/20 09:29:49;;;;;;;13.60;11.65;;;-2.50;99.90;;;;;;5048001;28;20425;-64
2024/01/20 09:32:18;;;;;;;13.45;10.90;;;-2.40;99.90;;;;;;5049886;28;20413;-65
2024/01/20 09:34:44;;;;;;;13.13;11.27;;;-2.40;99.90;;;;;;5053610;28;20410;-65
2024/01/20 09:37:11;;;;;;;14.10;11.88;;;-2.20;99.90;;;;;;5047959;28;20569;-65
2024/01/20 09:39:38;;;;;;;14.52;11.40;;;-2.10;99.90;;;;;;5049432;28;20429;-65
2024/01/20 09:42:06;;;;;;;13.63;11.50;;;-2.00;99.90;;;;;;5046328;28;20415;-65
2024/01/20 09:44:32;;;;;;;12.90;11.50;;;-1.90;99.90;;;;;;5039898;28;20414;-65
2024/01/20 09:46:59;;;;;;;14.73;11.70;;;-1.80;99.90;;;;;;5038529;28;20703;-65
2024/01/20 09:49:27;;;;;;;12.55;11.25;;;-1.60;99.90;;;;;;5047919;28;20439;-64
2024/01/20 09:52:01;;;;;;;14.27;11.70;;;-1.50;99.90;;;;;;5045748;28;20432;-65
2024/01/20 09:54:28;;;;;;;12.95;11.10;;;-1.50;99.90;;;;;;5040554;28;20427;-64
2024/01/20 09:56:55;;;;;;;13.60;11.45;;;-1.50;99.90;;;;;;5034978;28;20718;-65
2024/01/20 09:59:23;;;;;;;12.25;10.63;;;-1.40;99.90;;;;;;5052466;28;20854;-65
2024/01/20 10:01:52;;;;;;;12.40;11.10;;;-1.50;99.90;;;;;;5043379;28;20906;-64
2024/01/20 10:04:20;;;;;;;14.50;11.65;;;-1.40;99.90;;;;;;5048295;28;20864;-65
2024/01/20 10:06:51;;;;;;;13.43;11.45;;;-1.30;99.90;;;;;;5052648;28;20431;-62
2024/01/20 10:09:17;;;;;;;13.60;11.25;;;-1.30;99.90;;;;;;5041835;28;20432;-63
2024/01/20 10:11:44;;;;;;;13.20;11.45;;;-1.20;99.90;;;;;;5042199;28;20437;-63
2024/01/20 10:14:11;;;;;;;13.27;11.27;;;-1.20;99.90;;;;;;5061951;28;20411;-64
2024/01/20 10:16:39;;;;;;;14.25;11.70;;;-1.00;99.90;;;;;;5054527;28;20424;-64
2024/01/20 10:19:06;;;;;;;13.30;10.98;;;-0.80;99.90;;;;;;5044417;28;20419;-64
2024/01/20 10:21:39;;;;;;;11.98;10.70;;;-0.70;99.90;;;;;;5055380;28;20410;-65
2024/01/20 10:24:07;;;;;;;11.60;10.35;;;-0.50;99.90;;;;;;5052246;28;20415;-63
2024/01/20 10:26:41;;;;;;;13.50;10.60;;;-0.60;99.90;;;;;;5039916;28;20419;-64
2024/01/20 10:29:08;;;;;;;12.83;11.23;;;-0.60;99.90;;;;;;5067206;28;20430;-65
2024/01/20 10:31:34;;;;;;;14.60;11.68;;;-0.50;99.90;;;;;;5077708;28;20420;-64
2024/01/20 10:34:01;;;;;;;13.52;10.95;;;-0.50;99.90;;;;;;5061444;28;20442;-64
2024/01/20 10:36:28;;;;;;;13.20;10.80;;;-0.40;99.90;;;;;;5045048;28;20475;-64
2024/01/20 10:39:00;;;;;;;13.00;11.50;;;-0.40;99.90;;;;;;5049621;28;20411;-64
2024/01/20 10:41:28;;;;;;;12.48;11.02;;;-0.30;99.90;;;;;;5046562;28;20549;-65
2024/01/20 10:44:02;;;;;;;12.15;10.55;;;-0.30;99.90;;;;;;5047605;28;20433;-63
2024/01/20 10:46:34;;;;;;;13.00;10.65;;;-0.30;99.90;;;;;;5056244;28;20515;-64
2024/01/20 10:49:01;;;;;;;12.68;10.13;;;-0.20;99.90;;;;;;5050582;28;20480;-67
2024/01/20 10:51:28;;;;;;;11.90;10.70;;;-0.10;99.90;;;;;;5052488;28;20919;-64
2024/01/20 10:53:56;;;;;;;12.40;11.02;;;0.00;99.90;;;;;;5054269;28;20417;-64
2024/01/20 10:56:22;;;;;;;12.15;10.35;;;0.00;99.90;;;;;;5044358;28;20420;-64
2024/01/20 10:59:09;;;;;;;12.00;10.70;;;0.10;99.90;;;;;;5046670;28;20410;-64
2024/01/20 11:01:36;;;;;;;12.33;10.30;;;0.00;99.90;;;;;;5041489;28;20423;-64
2024/01/20 11:04:02;;;;;;;11.48;9.95;;;-0.10;99.90;;;;;;5052984;28;20910;-64
2024/01/20 11:06:30;;;;;;;12.05;10.60;;;-0.20;99.90;;;;;;5049691;28;20434;-64
2024/01/20 11:09:01;;;;;;;12.18;10.88;;;-0.20;99.90;;;;;;5052386;28;20425;-65
2024/01/20 11:11:29;;;;;;;12.68;10.27;;;-0.10;99.90;;;;;;5053845;28;20429;-63
2024/01/20 11:14:00;;;;;;;12.68;10.98;;;-0.10;99.90;;;;;;5055065;28;20421;-63
2024/01/20 11:16:31;;;;;;;12.20;10.68;;;0.00;99.90;;;;;;5035743;28;20471;-64
2024/01/20 11:19:07;;;;;;;11.50;9.90;;;0.00;99.90;;;;;;5044611;28;20743;-64
2024/01/20 11:21:34;;;;;;;13.23;10.80;;;0.00;99.90;;;;;;5033444;28;20409;-64
2024/01/20 11:24:02;;;;;;;13.10;11.07;;;0.10;99.90;;;;;;5049015;28;20424;-64
2024/01/20 11:26:33;;;;;;;11.23;9.88;;;0.20;99.90;;;;;;5051572;28;20450;-64
2024/01/20 11:29:04;;;;;;;13.52;11.40;;;0.20;99.90;;;;;;5051890;28;20479;-64
2024/01/20 11:31:31;;;;;;;12.93;11.05;;;0.30;99.90;;;;;;5050167;28;20458;-64
2024/01/20 11:33:59;;;;;;;11.93;9.85;;;0.40;99.90;;;;;;5054665;28;20432;-64
2024/01/20 11:36:29;;;;;;;12.52;10.63;;;0.40;99.90;;;;;;5038515;28;20530;-64
2024/01/20 11:38:58;;;;;;;12.85;10.50;;;0.50;99.90;;;;;;5042893;28;20444;-64
2024/01/20 11:41:25;;;;;;;12.05;9.82;;;0.60;99.90;;;;;;5052083;28;20442;-64
2024/01/20 11:43:51;;;;;;;11.80;10.50;;;0.70;99.90;;;;;;5044072;28;20781;-62
2024/01/20 11:46:20;;;;;;;11.27;10.00;;;0.70;99.90;;;;;;5035455;28;20437;-63
2024/01/20 11:48:47;;;;;;;12.25;10.93;;;0.90;99.90;;;;;;5037618;28;20522;-63
2024/01/20 11:51:14;;;;;;;11.73;10.50;;;1.00;99.90;;;;;;5043021;28;20463;-62
2024/01/20 11:53:41;;;;;;;11.20;9.98;;;1.20;99.90;;;;;;5047857;28;20432;-63
2024/01/20 11:56:08;;;;;;;11.70;10.50;;;1.40;99.90;;;;;;5051328;28;20811;-63
2024/01/20 11:58:35;;;;;;;11.50;10.30;;;1.70;99.90;;;;;;5045592;28;20525;-63
2024/01/20 12:01:02;;;;;;;11.50;10.30;;;2.10;99.90;;;;;;5058561;28;20502;-63
2024/01/20 12:03:31;;;;;;;11.95;10.35;;;2.30;99.80;;;;;;5044074;28;20436;-63
2024/01/20 12:06:04;;;;;;;11.52;10.30;;;2.50;99.90;;;;;;5050689;28;20435;-64
2024/01/20 12:08:31;;;;;;;12.48;11.07;;;3.00;97.80;;;;;;5050937;28;20476;-64
2024/01/20 12:10:58;;;;;;;12.13;10.80;;;3.40;96.70;;;;;;5066522;28;20436;-63
2024/01/20 12:13:25;;;;;;;11.60;10.15;;;3.70;95.30;;;;;;5068093;28;20408;-64
2024/01/20 12:15:52;;;;;;;11.40;10.20;;;3.90;92.00;;;;;;5067507;28;20404;-65
2024/01/20 12:18:18;;;;;;;11.38;10.13;;;4.00;91.80;;;;;;5067164;22;20437;-71
2024/01/20 12:20:46;;;;;;;11.30;10.10;;;4.80;85.80;;;;;;5042112;28;20758;-72
2024/01/20 12:23:19;;;;;;;11.98;10.57;;;5.40;80.70;;;;;;5038945;28;20444;-72
2024/01/20 12:25:46;;;;;;;11.63;10.43;;;6.10;74.10;;;;;;5041593;28;20785;-72
2024/01/20 12:28:13;;;;;;;11.57;10.38;;;6.70;70.20;;;;;;5040186;28;20429;-71